Time;durP1;ratioP1;P1;durP2;ratioP2;P2;SDS_P1;SDS_P2;PMS_P1;PMS_P2;Temp;Humidity;BMP_temperature;BMP_pressure;BME280_temperature;BME280_humidity;BME280_pressure;Samples;Min_cycle;Max_cycle;Signal;HPM_P1;HPM_P2
2022/12/04 00:01:34;;;;;;;8.97;8.67;;;2.90;99.90;;;;;;5068182;28;20291;-84
2022/12/04 00:04:05;;;;;;;9.17;8.87;;;2.90;99.90;;;;;;5068024;28;20304;-83
2022/12/04 00:06:33;;;;;;;9.00;8.70;;;2.80;99.90;;;;;;5067727;28;20230;-83
2022/12/04 00:09:02;;;;;;;9.00;8.70;;;2.80;99.90;;;;;;5067599;28;20231;-84
2022/12/04 00:11:32;;;;;;;9.13;8.83;;;2.80;99.90;;;;;;5066488;28;20234;-83
2022/12/04 00:14:03;;;;;;;9.00;8.70;;;2.80;99.90;;;;;;5065896;28;20238;-83
2022/12/04 00:16:31;;;;;;;8.93;8.63;;;2.70;99.90;;;;;;5065714;28;20219;-84
2022/12/04 00:19:00;;;;;;;9.27;8.97;;;2.70;99.90;;;;;;5065820;28;20238;-84
2022/12/04 00:21:29;;;;;;;8.90;8.60;;;2.60;99.90;;;;;;5064987;28;20290;-83
2022/12/04 00:23:58;;;;;;;9.03;8.73;;;2.60;99.90;;;;;;5064780;28;20238;-83
2022/12/04 00:26:29;;;;;;;8.77;8.57;;;2.70;99.90;;;;;;5064306;28;20297;-83
2022/12/04 00:28:58;;;;;;;8.80;8.60;;;2.70;99.90;;;;;;5064773;28;20285;-83
2022/12/04 00:31:36;;;;;;;9.00;8.70;;;2.70;99.90;;;;;;5065082;28;20318;-81
2022/12/04 00:34:06;;;;;;;9.00;8.70;;;2.70;99.90;;;;;;5065253;28;20297;-81
2022/12/04 00:36:35;;;;;;;9.00;8.70;;;2.70;99.90;;;;;;5064105;28;20257;-81
2022/12/04 00:39:04;;;;;;;8.83;8.60;;;2.70;99.90;;;;;;5046273;28;20262;-81
2022/12/04 00:41:34;;;;;;;8.87;8.60;;;2.70;99.90;;;;;;5062062;28;20266;-81
2022/12/04 00:44:03;;;;;;;8.90;8.60;;;2.70;99.90;;;;;;5064011;28;20262;-81
2022/12/04 00:46:35;;;;;;;8.93;8.63;;;2.70;99.90;;;;;;5061626;28;20581;-81
2022/12/04 00:49:04;;;;;;;8.67;8.47;;;2.70;99.90;;;;;;5063658;28;20235;-83
2022/12/04 00:51:36;;;;;;;8.73;8.53;;;2.80;99.90;;;;;;5061035;28;20231;-83
2022/12/04 00:54:03;;;;;;;8.87;8.60;;;2.80;99.90;;;;;;5061344;28;20231;-83
2022/12/04 00:56:33;;;;;;;8.90;8.60;;;2.80;99.90;;;;;;5061294;28;20306;-83
2022/12/04 00:59:03;;;;;;;8.73;8.53;;;2.70;99.90;;;;;;5062238;28;20314;-83
2022/12/04 01:01:34;;;;;;;8.70;8.50;;;2.70;99.90;;;;;;5063014;28;20234;-83
2022/12/04 01:04:02;;;;;;;8.60;8.40;;;2.70;99.90;;;;;;5065279;28;20295;-84
2022/12/04 01:06:32;;;;;;;8.30;8.10;;;2.60;99.90;;;;;;5066204;28;20238;-83
2022/12/04 01:09:01;;;;;;;8.47;8.27;;;2.70;99.90;;;;;;5063935;28;20231;-83
2022/12/04 01:11:31;;;;;;;8.40;8.20;;;2.80;99.90;;;;;;5063353;28;20230;-82
2022/12/04 01:13:59;;;;;;;8.33;8.13;;;2.80;99.90;;;;;;5062764;28;20546;-82
2022/12/04 01:16:31;;;;;;;8.70;8.50;;;2.70;99.90;;;;;;5062983;28;20277;-83
2022/12/04 01:18:59;;;;;;;8.60;8.40;;;2.60;99.90;;;;;;5066508;28;20250;-83
2022/12/04 01:21:27;;;;;;;8.43;8.23;;;2.70;99.90;;;;;;5067053;28;20298;-81
2022/12/04 01:23:57;;;;;;;8.70;8.50;;;2.60;99.90;;;;;;5063326;28;20239;-81
2022/12/04 01:26:26;;;;;;;8.33;8.13;;;2.60;99.90;;;;;;5064046;28;20234;-81
2022/12/04 01:28:56;;;;;;;8.60;8.40;;;2.60;99.90;;;;;;5064100;28;20235;-81
2022/12/04 01:31:26;;;;;;;8.60;8.40;;;2.50;99.90;;;;;;5068314;28;20251;-82
2022/12/04 01:33:57;;;;;;;8.67;8.47;;;2.50;99.90;;;;;;5078788;28;20247;-82
2022/12/04 01:36:34;;;;;;;8.50;8.30;;;2.50;99.90;;;;;;5075381;28;20281;-82
2022/12/04 01:39:02;;;;;;;8.70;8.50;;;2.60;99.90;;;;;;5072250;28;20257;-82
2022/12/04 01:41:31;;;;;;;8.93;8.63;;;2.60;99.90;;;;;;5071967;28;20235;-82
2022/12/04 01:44:18;;;;;;;8.60;8.40;;;2.60;99.90;;;;;;5076346;28;20230;-82
2022/12/04 01:46:47;;;;;;;8.60;8.40;;;2.70;99.90;;;;;;5078659;28;20266;-82
2022/12/04 01:49:26;;;;;;;8.70;8.50;;;2.70;99.90;;;;;;5079904;28;20250;-83
2022/12/04 01:52:04;;;;;;;8.80;8.60;;;2.60;99.90;;;;;;5079406;28;20230;-83
2022/12/04 01:54:42;;;;;;;8.50;8.30;;;2.70;99.90;;;;;;5079490;28;20227;-82
2022/12/04 01:57:14;;;;;;;8.70;8.50;;;2.60;99.90;;;;;;5079490;28;20318;-83
2022/12/04 01:59:50;;;;;;;8.47;8.27;;;2.60;99.90;;;;;;5079412;28;20222;-82
2022/12/04 02:02:23;;;;;;;8.63;8.43;;;2.60;99.90;;;;;;5169874;22;20247;-83
2022/12/04 02:05:00;;;;;;;8.57;8.37;;;2.60;99.90;;;;;;5059802;28;20208;-82
2022/12/04 02:07:28;;;;;;;8.80;8.60;;;2.60;99.90;;;;;;5059443;28;20227;-82
2022/12/04 02:10:02;;;;;;;8.67;8.47;;;2.60;99.90;;;;;;5059576;28;20215;-82
2022/12/04 02:15:24;;;;;;;8.70;8.50;;;2.70;99.90;;;;;;5077183;28;20203;-83
2022/12/04 02:18:07;;;;;;;8.63;8.43;;;2.70;99.90;;;;;;5078600;28;20219;-81
2022/12/04 02:20:49;;;;;;;8.80;8.60;;;2.80;99.90;;;;;;5078453;28;20269;-83
2022/12/04 02:23:37;;;;;;;8.70;8.50;;;2.80;99.90;;;;;;5078924;28;20246;-82
2022/12/04 02:26:33;;;;;;;8.83;8.60;;;2.80;99.90;;;;;;5079363;28;20233;-82
2022/12/04 02:29:08;;;;;;;8.53;8.33;;;2.90;99.90;;;;;;5079330;28;20231;-82
2022/12/04 02:31:46;;;;;;;8.50;8.30;;;2.90;99.90;;;;;;5071058;28;20233;-82
2022/12/04 02:34:18;;;;;;;8.70;8.50;;;3.00;99.90;;;;;;5066394;28;20310;-82
2022/12/04 02:36:54;;;;;;;8.53;8.33;;;3.00;99.90;;;;;;5064258;28;20249;-82
2022/12/04 02:39:26;;;;;;;8.57;8.37;;;3.00;99.90;;;;;;5060905;28;20230;-83
2022/12/04 02:42:02;;;;;;;8.63;8.43;;;2.90;99.90;;;;;;5060186;28;20234;-82
2022/12/04 02:44:40;;;;;;;8.67;8.47;;;2.90;99.90;;;;;;5059533;28;20244;-82
2022/12/04 02:47:18;;;;;;;8.63;8.43;;;2.90;99.90;;;;;;5062735;28;20241;-82
2022/12/04 02:49:51;;;;;;;8.87;8.60;;;2.90;99.90;;;;;;5060713;28;20227;-82
2022/12/04 02:52:37;;;;;;;8.60;8.40;;;2.90;99.90;;;;;;5060902;28;20230;-82
2022/12/04 02:55:15;;;;;;;8.53;8.33;;;2.90;99.90;;;;;;5060446;28;20322;-83
2022/12/04 02:57:47;;;;;;;8.60;8.40;;;2.90;99.90;;;;;;5061001;28;20253;-83
2022/12/04 03:00:20;;;;;;;8.50;8.30;;;2.80;99.90;;;;;;5060415;28;20226;-82
2022/12/04 03:02:54;;;;;;;8.60;8.40;;;2.90;99.90;;;;;;5061326;28;20334;-82
2022/12/04 03:05:32;;;;;;;8.50;8.30;;;3.00;99.90;;;;;;5067347;28;20219;-82
2022/12/04 03:08:09;;;;;;;8.43;8.23;;;2.90;99.90;;;;;;5072790;28;20235;-82
2022/12/04 03:10:46;;;;;;;8.53;8.33;;;2.80;99.90;;;;;;5067875;28;20278;-83
2022/12/04 03:13:25;;;;;;;8.60;8.40;;;2.90;99.90;;;;;;5062280;28;20245;-82
2022/12/04 03:16:03;;;;;;;8.53;8.33;;;3.00;99.90;;;;;;5066792;28;20238;-82
2022/12/04 03:18:41;;;;;;;8.50;8.30;;;3.00;99.90;;;;;;5066646;28;20257;-82
2022/12/04 03:21:17;;;;;;;8.60;8.40;;;3.00;99.90;;;;;;5063694;28;20313;-82
2022/12/04 03:23:52;;;;;;;8.67;8.47;;;2.90;99.90;;;;;;5062961;28;20254;-82
2022/12/04 03:26:28;;;;;;;8.60;8.40;;;2.90;99.90;;;;;;5063410;28;20292;-82
2022/12/04 03:28:59;;;;;;;8.60;8.40;;;2.80;99.90;;;;;;5064397;28;20230;-82
2022/12/04 03:31:37;;;;;;;8.67;8.47;;;2.80;99.90;;;;;;5066129;28;20305;-82
2022/12/04 03:34:07;;;;;;;8.60;8.40;;;2.80;99.90;;;;;;5064034;28;20254;-81
2022/12/04 03:36:39;;;;;;;8.60;8.40;;;2.80;99.90;;;;;;5064088;28;20266;-83
2022/12/04 03:39:21;;;;;;;8.53;8.33;;;2.80;99.90;;;;;;5064524;28;20254;-82
2022/12/04 03:41:59;;;;;;;8.70;8.50;;;2.70;99.90;;;;;;5065874;28;20213;-82
2022/12/04 03:44:38;;;;;;;8.60;8.40;;;2.80;99.90;;;;;;5063374;28;20230;-82
2022/12/04 03:47:16;;;;;;;8.70;8.50;;;2.70;99.90;;;;;;5063358;28;20269;-82
2022/12/04 03:49:53;;;;;;;8.60;8.40;;;2.70;99.90;;;;;;5063648;28;20298;-82
2022/12/04 03:52:32;;;;;;;8.60;8.40;;;2.80;99.90;;;;;;5062843;28;20385;-82
2022/12/04 03:55:09;;;;;;;8.50;8.30;;;2.80;99.90;;;;;;5054488;28;20269;-82
2022/12/04 03:57:42;;;;;;;8.50;8.30;;;2.80;99.90;;;;;;5055504;28;20329;-83
2022/12/04 04:00:15;;;;;;;8.60;8.40;;;2.90;99.90;;;;;;5066512;28;20257;-81
2022/12/04 04:02:56;;;;;;;8.37;8.17;;;2.90;99.90;;;;;;5063674;28;20247;-82
2022/12/04 04:05:26;;;;;;;8.37;8.17;;;2.90;99.90;;;;;;5062494;28;20324;-82
2022/12/04 04:08:24;;;;;;;8.47;8.27;;;2.90;99.90;;;;;;5062642;28;20249;-82
2022/12/04 04:10:50;;;;;;;8.47;8.27;;;3.00;99.90;;;;;;5062150;28;20227;-83
2022/12/04 04:24:45;;;;;;;8.40;8.20;;;2.90;99.90;;;;;;5063055;28;20214;-82
2022/12/04 04:27:17;;;;;;;8.40;8.20;;;2.90;99.90;;;;;;5062695;28;20234;-82
2022/12/04 04:29:46;;;;;;;8.50;8.30;;;2.90;99.90;;;;;;5062820;28;20253;-82
2022/12/04 04:32:21;;;;;;;8.30;8.10;;;2.90;99.90;;;;;;5062086;28;20295;-82
2022/12/04 04:35:14;;;;;;;8.37;8.17;;;2.80;99.90;;;;;;5062223;28;20418;-82
2022/12/04 04:37:57;;;;;;;8.50;8.30;;;2.90;99.90;;;;;;5061827;28;20421;-82
2022/12/04 04:40:36;;;;;;;8.40;8.20;;;2.90;99.90;;;;;;5047104;28;20219;-82
2022/12/04 04:43:12;;;;;;;8.50;8.30;;;2.90;99.90;;;;;;5062606;28;20292;-82
2022/12/04 04:45:45;;;;;;;8.50;8.30;;;3.00;99.90;;;;;;5061522;28;20218;-82
2022/12/04 04:48:16;;;;;;;8.50;8.30;;;3.00;99.90;;;;;;5060457;28;20226;-82
2022/12/04 04:50:46;;;;;;;8.40;8.20;;;3.00;99.90;;;;;;5060813;28;20290;-82
2022/12/04 04:53:22;;;;;;;8.27;8.07;;;3.00;99.90;;;;;;5061637;28;20227;-83
2022/12/04 04:55:50;;;;;;;8.37;8.17;;;3.00;99.90;;;;;;5061637;28;20227;-82
2022/12/04 04:58:20;;;;;;;8.30;8.10;;;3.00;99.90;;;;;;5061537;28;20259;-82
2022/12/04 05:00:58;;;;;;;8.37;8.17;;;3.00;99.90;;;;;;5062790;28;20293;-83
2022/12/04 05:03:30;;;;;;;8.40;8.20;;;3.00;99.90;;;;;;5064182;28;20270;-82
2022/12/04 05:06:00;;;;;;;8.20;8.00;;;3.10;99.90;;;;;;5062940;28;20229;-82
2022/12/04 05:08:28;;;;;;;8.27;8.07;;;3.10;99.90;;;;;;5063739;28;20235;-82
2022/12/04 05:10:58;;;;;;;8.23;8.03;;;3.10;99.90;;;;;;5063055;28;20254;-82
2022/12/04 05:13:26;;;;;;;8.40;8.20;;;3.10;99.90;;;;;;5062943;28;20239;-82
2022/12/04 05:15:58;;;;;;;8.33;8.13;;;3.10;99.90;;;;;;5068704;28;20257;-81
2022/12/04 05:18:26;;;;;;;8.37;8.17;;;3.10;99.90;;;;;;5073385;28;20293;-82
2022/12/04 05:20:52;;;;;;;8.27;8.07;;;3.20;99.90;;;;;;5074160;28;20235;-82
2022/12/04 05:23:26;;;;;;;8.50;8.30;;;3.30;99.90;;;;;;5070114;28;20230;-82
2022/12/04 05:26:01;;;;;;;8.30;8.10;;;3.30;99.90;;;;;;5065053;28;20336;-82
2022/12/04 05:28:33;;;;;;;8.50;8.30;;;3.20;99.90;;;;;;5064655;28;20260;-82
2022/12/04 05:31:03;;;;;;;8.50;8.30;;;3.20;99.90;;;;;;5065036;28;20277;-81
2022/12/04 05:33:31;;;;;;;8.40;8.20;;;3.20;99.90;;;;;;5060749;28;20235;-81
2022/12/04 05:35:59;;;;;;;8.43;8.23;;;3.30;99.90;;;;;;5059680;28;20291;-82
2022/12/04 05:38:36;;;;;;;8.67;8.47;;;3.30;99.90;;;;;;5062149;28;20235;-82
2022/12/04 05:41:07;;;;;;;8.33;8.13;;;3.40;99.90;;;;;;5060391;28;20273;-82
2022/12/04 05:43:37;;;;;;;8.50;8.30;;;3.50;99.90;;;;;;5060021;28;20370;-82
2022/12/04 05:46:07;;;;;;;8.30;8.10;;;3.60;99.90;;;;;;5061117;28;20280;-82
2022/12/04 05:48:35;;;;;;;8.37;8.17;;;3.60;99.90;;;;;;5061139;28;20235;-82
2022/12/04 05:51:07;;;;;;;8.47;8.27;;;3.60;99.90;;;;;;5064961;28;20243;-82
2022/12/04 05:53:36;;;;;;;8.50;8.30;;;3.50;99.90;;;;;;5070332;22;20266;-82
2022/12/04 05:56:06;;;;;;;8.33;8.13;;;3.50;99.90;;;;;;5036982;28;20259;-82
2022/12/04 05:58:36;;;;;;;8.33;8.13;;;3.40;99.90;;;;;;5041538;28;20239;-80
2022/12/04 06:01:12;;;;;;;8.67;8.47;;;3.30;99.90;;;;;;5043529;28;20227;-80
2022/12/04 06:03:41;;;;;;;8.70;8.50;;;3.30;99.90;;;;;;5055410;28;20233;-80
2022/12/04 06:06:19;;;;;;;8.33;8.13;;;3.30;99.90;;;;;;5063322;28;20358;-80
2022/12/04 06:08:58;;;;;;;8.50;8.30;;;3.30;99.90;;;;;;5063169;28;20265;-80
2022/12/04 06:11:28;;;;;;;8.23;8.03;;;3.30;99.90;;;;;;5062150;28;20295;-80
2022/12/04 06:13:56;;;;;;;8.40;8.20;;;3.30;99.90;;;;;;5063100;28;20329;-82
2022/12/04 06:16:28;;;;;;;8.40;8.20;;;3.40;99.90;;;;;;5063007;28;20215;-80
2022/12/04 06:18:58;;;;;;;8.57;8.37;;;3.50;99.90;;;;;;5067494;28;20234;-80
2022/12/04 06:21:35;;;;;;;8.43;8.23;;;3.50;99.90;;;;;;5067985;28;20230;-80
2022/12/04 06:24:12;;;;;;;8.73;8.53;;;3.60;99.90;;;;;;5065029;28;20250;-80
2022/12/04 06:26:41;;;;;;;8.53;8.33;;;3.60;99.90;;;;;;5063575;28;21106;-79
2022/12/04 06:29:12;;;;;;;8.77;8.50;;;3.60;99.90;;;;;;5063681;28;20250;-80
2022/12/04 06:31:41;;;;;;;8.40;8.20;;;3.60;99.90;;;;;;5063933;28;20253;-79
2022/12/04 06:34:09;;;;;;;8.50;8.30;;;3.50;99.90;;;;;;5069168;28;20257;-80
2022/12/04 06:36:38;;;;;;;8.40;8.20;;;3.50;99.90;;;;;;5065737;28;20215;-83
2022/12/04 06:41:58;;;;;;;8.50;8.30;;;3.40;99.90;;;;;;5063676;28;20250;-80
2022/12/04 06:44:26;;;;;;;8.60;8.40;;;3.50;99.90;;;;;;5063253;28;20231;-80
2022/12/04 06:46:56;;;;;;;8.50;8.30;;;3.50;99.90;;;;;;5063693;28;20227;-80
2022/12/04 06:49:26;;;;;;;8.70;8.50;;;3.50;99.90;;;;;;5063106;28;20231;-80
2022/12/04 06:51:56;;;;;;;8.50;8.30;;;3.50;99.90;;;;;;5062371;28;20242;-79
2022/12/04 06:54:27;;;;;;;8.60;8.40;;;3.50;99.90;;;;;;5060517;28;20230;-80
2022/12/04 06:56:58;;;;;;;8.60;8.40;;;3.60;99.90;;;;;;5055552;28;20227;-80
2022/12/04 06:59:26;;;;;;;8.57;8.37;;;3.60;99.90;;;;;;5062977;28;20242;-81
2022/12/04 07:01:54;;;;;;;8.47;8.27;;;3.70;99.90;;;;;;5066540;28;20241;-81
2022/12/04 07:04:23;;;;;;;8.30;8.10;;;3.60;99.90;;;;;;5066816;28;20288;-80
2022/12/04 07:06:52;;;;;;;8.30;8.10;;;3.50;99.90;;;;;;5066519;28;20222;-82
2022/12/04 07:09:23;;;;;;;8.43;8.23;;;3.50;99.90;;;;;;5066017;28;20234;-80
2022/12/04 07:11:54;;;;;;;8.50;8.30;;;3.60;99.90;;;;;;5066391;28;20242;-82
2022/12/04 07:14:31;;;;;;;8.30;8.10;;;3.50;99.90;;;;;;5065610;28;20237;-82
2022/12/04 07:16:59;;;;;;;8.50;8.30;;;3.60;99.90;;;;;;5064793;28;20246;-82
2022/12/04 07:19:27;;;;;;;8.60;8.40;;;3.60;99.90;;;;;;5065926;28;20414;-82
2022/12/04 07:21:57;;;;;;;8.60;8.40;;;3.60;99.90;;;;;;5067952;28;20265;-86
2022/12/04 07:24:27;;;;;;;8.60;8.40;;;3.60;99.90;;;;;;5070740;28;20230;-84
2022/12/04 07:27:05;;;;;;;8.43;8.23;;;3.70;99.90;;;;;;5068188;28;20219;-86
2022/12/04 07:29:34;;;;;;;8.60;8.40;;;3.60;99.90;;;;;;5068253;28;20231;-83
2022/12/04 07:32:04;;;;;;;8.50;8.30;;;3.60;99.90;;;;;;5068333;28;20265;-83
2022/12/04 07:34:34;;;;;;;8.57;8.37;;;3.50;99.90;;;;;;5067655;28;20230;-83
2022/12/04 07:37:03;;;;;;;8.20;8.00;;;3.60;99.90;;;;;;5067988;28;20222;-83
2022/12/04 07:39:34;;;;;;;8.27;8.07;;;3.60;99.90;;;;;;5068447;28;20381;-84
2022/12/04 07:42:04;;;;;;;8.40;8.20;;;3.80;99.90;;;;;;5068771;28;20238;-83
2022/12/04 07:44:32;;;;;;;8.40;8.20;;;3.80;99.90;;;;;;5068008;28;20237;-83
2022/12/04 07:47:00;;;;;;;8.40;8.20;;;3.90;99.90;;;;;;5067886;28;20278;-82
2022/12/04 07:49:32;;;;;;;8.33;8.13;;;3.90;99.90;;;;;;5068460;28;20245;-83
2022/12/04 07:51:59;;;;;;;8.40;8.20;;;3.80;99.90;;;;;;5070600;28;20238;-82
2022/12/04 07:54:28;;;;;;;8.30;8.10;;;3.80;99.90;;;;;;5069283;28;20243;-82
2022/12/04 07:57:00;;;;;;;8.40;8.20;;;3.90;99.90;;;;;;5068831;28;20230;-83
2022/12/04 07:59:30;;;;;;;8.20;8.00;;;3.90;99.90;;;;;;5057240;28;20778;-82
2022/12/04 08:01:58;;;;;;;8.27;8.07;;;4.00;99.90;;;;;;5052838;28;20266;-83
2022/12/04 08:04:26;;;;;;;8.30;8.10;;;4.10;99.90;;;;;;5067009;28;20246;-83
2022/12/04 08:06:58;;;;;;;8.30;8.10;;;4.00;99.90;;;;;;5067104;28;20225;-83
2022/12/04 08:09:25;;;;;;;8.27;8.07;;;3.90;99.90;;;;;;5066744;28;20286;-83
2022/12/04 08:11:54;;;;;;;8.40;8.20;;;3.80;99.90;;;;;;5066434;28;20266;-83
2022/12/04 08:14:24;;;;;;;8.40;8.20;;;3.80;99.90;;;;;;5067501;28;20298;-82
2022/12/04 08:16:56;;;;;;;8.50;8.30;;;3.90;99.90;;;;;;5069925;28;20255;-81
2022/12/04 08:19:24;;;;;;;8.50;8.30;;;4.00;99.90;;;;;;5075885;28;20249;-83
2022/12/04 08:21:52;;;;;;;8.53;8.33;;;4.10;99.90;;;;;;5071061;28;20261;-83
2022/12/04 08:24:22;;;;;;;8.63;8.43;;;4.10;99.90;;;;;;5069715;28;20234;-83
2022/12/04 08:26:54;;;;;;;8.40;8.20;;;4.20;99.90;;;;;;5074293;28;20226;-83
2022/12/04 08:29:21;;;;;;;8.63;8.43;;;4.20;99.90;;;;;;5073638;28;20235;-82
2022/12/04 08:31:50;;;;;;;8.83;8.63;;;4.20;99.90;;;;;;5070342;28;20255;-84
2022/12/04 08:34:22;;;;;;;8.77;8.57;;;4.00;99.90;;;;;;5065646;28;20298;-84
2022/12/04 08:36:50;;;;;;;8.70;8.50;;;4.00;99.90;;;;;;5065435;28;20241;-84
2022/12/04 08:39:19;;;;;;;8.53;8.33;;;3.90;99.90;;;;;;5065819;28;20237;-84
2022/12/04 08:41:48;;;;;;;8.70;8.50;;;3.80;99.90;;;;;;5065485;28;20330;-84
2022/12/04 08:44:17;;;;;;;8.53;8.33;;;3.80;99.90;;;;;;5066028;28;20258;-83
2022/12/04 08:46:46;;;;;;;8.47;8.27;;;3.80;99.90;;;;;;5065291;28;20322;-84
2022/12/04 08:49:20;;;;;;;8.50;8.30;;;3.90;99.90;;;;;;5065942;28;20247;-84
2022/12/04 08:51:50;;;;;;;8.60;8.40;;;3.90;99.90;;;;;;5066079;28;20231;-83
2022/12/04 08:54:18;;;;;;;8.70;8.50;;;4.00;99.90;;;;;;5065939;28;20238;-84
2022/12/04 08:56:47;;;;;;;8.67;8.47;;;4.00;99.90;;;;;;5065089;28;20267;-84
2022/12/04 08:59:16;;;;;;;8.70;8.50;;;4.00;99.90;;;;;;5061255;28;20254;-83
2022/12/04 09:01:46;;;;;;;8.30;8.10;;;4.10;99.90;;;;;;5056778;28;20230;-83
2022/12/04 09:04:15;;;;;;;8.37;8.17;;;4.20;99.90;;;;;;5064523;28;20246;-84
2022/12/04 09:06:44;;;;;;;8.40;8.20;;;4.30;99.90;;;;;;5064627;28;20281;-83
2022/12/04 09:09:22;;;;;;;8.53;8.33;;;4.40;99.90;;;;;;5066355;28;20246;-84
2022/12/04 09:11:55;;;;;;;8.70;8.50;;;4.30;99.90;;;;;;5066133;28;20241;-83
2022/12/04 09:14:24;;;;;;;8.60;8.40;;;4.30;99.90;;;;;;5065161;28;20226;-82
2022/12/04 09:17:09;;;;;;;8.50;8.30;;;4.40;99.90;;;;;;5064318;28;20239;-82
2022/12/04 09:19:38;;;;;;;8.50;8.30;;;4.40;99.90;;;;;;5066206;28;20312;-84
2022/12/04 09:22:07;;;;;;;8.70;8.50;;;4.50;99.90;;;;;;5067053;28;20258;-85
2022/12/04 09:24:39;;;;;;;9.00;8.70;;;4.50;99.90;;;;;;5065100;28;21097;-86
2022/12/04 09:27:07;;;;;;;8.70;8.50;;;4.50;99.90;;;;;;5068569;28;20234;-85
2022/12/04 09:29:36;;;;;;;9.30;9.00;;;4.50;99.90;;;;;;5069187;28;20242;-85
2022/12/04 09:32:07;;;;;;;8.90;8.63;;;4.40;99.90;;;;;;5069075;28;20310;-86
2022/12/04 09:34:35;;;;;;;9.00;8.70;;;4.40;99.90;;;;;;5067985;28;20288;-85
2022/12/04 09:37:05;;;;;;;9.10;8.80;;;4.50;99.90;;;;;;5067577;28;20240;-85
2022/12/04 09:39:33;;;;;;;8.80;8.60;;;4.50;99.90;;;;;;5065976;28;20253;-84
2022/12/04 09:42:20;;;;;;;8.67;8.47;;;4.60;99.90;;;;;;5066510;28;20231;-85
2022/12/04 09:44:58;;;;;;;9.10;8.80;;;4.60;99.90;;;;;;5065251;28;20235;-84
2022/12/04 09:47:31;;;;;;;8.53;8.33;;;4.70;99.90;;;;;;5065244;28;20290;-84
2022/12/04 09:50:06;;;;;;;9.20;8.90;;;4.80;99.90;;;;;;5065813;28;20308;-85
2022/12/04 09:53:02;;;;;;;9.20;8.90;;;4.80;99.90;;;;;;5064738;28;20238;-84
2022/12/04 09:55:40;;;;;;;8.97;8.67;;;4.80;99.90;;;;;;5065619;28;20238;-84
2022/12/04 09:58:19;;;;;;;9.00;8.70;;;4.80;99.90;;;;;;5059490;28;20223;-85
2022/12/04 10:00:57;;;;;;;9.20;8.90;;;4.80;99.90;;;;;;5054239;28;20250;-84
2022/12/04 10:03:31;;;;;;;9.10;8.80;;;4.80;99.90;;;;;;5052433;28;20263;-84
2022/12/04 10:06:13;;;;;;;9.20;8.90;;;4.70;99.90;;;;;;5044762;28;20227;-85
2022/12/04 10:08:45;;;;;;;9.20;8.90;;;4.80;99.90;;;;;;5059945;28;20235;-87
2022/12/04 10:11:23;;;;;;;9.10;8.80;;;4.80;99.90;;;;;;5062984;28;20261;-87
2022/12/04 10:14:28;;;;;;;9.00;8.70;;;4.80;99.90;;;;;;5063226;28;20242;-87
2022/12/04 10:17:31;;;;;;;9.13;8.83;;;4.80;99.90;;;;;;5063910;28;20257;-86
2022/12/04 10:23:05;;;;;;;8.90;8.70;;;5.00;99.90;;;;;;5060367;28;20235;-83
2022/12/04 10:28:32;;;;;;;8.97;8.67;;;4.90;99.90;;;;;;5061735;28;20242;-85
2022/12/04 10:31:08;;;;;;;9.10;8.80;;;4.80;99.90;;;;;;5065038;28;20309;-85
2022/12/04 10:33:46;;;;;;;9.17;8.87;;;4.80;99.90;;;;;;5069990;28;20273;-84
2022/12/04 10:36:25;;;;;;;9.20;8.90;;;4.90;99.90;;;;;;5073578;28;20230;-86
2022/12/04 10:39:03;;;;;;;9.10;8.80;;;5.00;99.90;;;;;;5068134;28;20229;-86
2022/12/04 10:41:42;;;;;;;8.97;8.67;;;5.10;99.90;;;;;;5067342;28;20211;-83
2022/12/04 10:44:19;;;;;;;9.10;8.80;;;5.10;99.90;;;;;;5068464;28;20230;-86
2022/12/04 10:46:59;;;;;;;9.10;8.80;;;5.30;99.90;;;;;;5067729;28;20237;-83
2022/12/04 10:49:29;;;;;;;8.80;8.60;;;5.30;99.90;;;;;;5069832;28;20247;-86
2022/12/04 10:52:17;;;;;;;9.00;8.70;;;5.40;99.90;;;;;;5067472;28;20250;-87
2022/12/04 10:55:05;;;;;;;8.80;8.60;;;5.30;99.90;;;;;;5060805;28;20242;-87
2022/12/04 10:57:40;;;;;;;8.90;8.60;;;5.40;99.90;;;;;;5060566;28;20328;-84
2022/12/04 11:00:30;;;;;;;9.40;9.10;;;5.40;99.90;;;;;;5061994;28;20242;-84
2022/12/04 11:05:55;;;;;;;8.70;8.50;;;5.40;99.90;;;;;;5063109;28;21065;-83
2022/12/04 11:08:31;;;;;;;8.80;8.60;;;5.40;99.90;;;;;;5063492;28;20242;-84
2022/12/04 11:11:02;;;;;;;9.00;8.70;;;5.50;99.90;;;;;;5063936;28;20222;-84
2022/12/04 11:13:35;;;;;;;8.80;8.60;;;5.40;99.90;;;;;;5063522;28;20270;-84
2022/12/04 11:16:39;;;;;;;8.77;8.57;;;5.40;99.90;;;;;;5063311;28;20242;-85
2022/12/04 11:23:03;;;;;;;9.10;8.80;;;5.60;99.90;;;;;;5058526;28;20328;-84
2022/12/04 11:25:48;;;;;;;8.70;8.50;;;5.80;99.90;;;;;;5063894;28;20268;-85
2022/12/04 11:28:19;;;;;;;8.80;8.60;;;5.80;99.90;;;;;;5062888;28;20235;-85
2022/12/04 11:30:56;;;;;;;9.00;8.70;;;5.80;99.90;;;;;;5062908;28;20219;-83
2022/12/04 11:33:43;;;;;;;9.00;8.70;;;5.80;99.90;;;;;;5064935;28;20218;-84
2022/12/04 11:36:21;;;;;;;8.70;8.50;;;5.90;99.90;;;;;;5065971;28;20269;-84
2022/12/04 11:38:51;;;;;;;8.80;8.60;;;5.80;99.90;;;;;;5064173;28;20234;-84
2022/12/04 11:41:29;;;;;;;8.83;8.60;;;5.80;99.90;;;;;;5065428;28;20722;-84
2022/12/04 11:43:58;;;;;;;8.77;8.57;;;5.80;99.90;;;;;;5066852;28;20297;-85
2022/12/04 11:46:30;;;;;;;9.10;8.80;;;5.80;99.90;;;;;;5067738;28;20219;-84
2022/12/04 11:49:06;;;;;;;8.77;8.57;;;5.90;99.90;;;;;;5069632;28;20235;-86
2022/12/04 11:52:05;;;;;;;8.87;8.60;;;5.90;99.90;;;;;;5068349;28;20234;-84
2022/12/04 11:54:47;;;;;;;8.97;8.67;;;5.80;99.90;;;;;;5097417;23;20257;-80
2022/12/04 11:57:24;;;;;;;9.00;8.70;;;5.80;99.90;;;;;;5080946;28;20249;-79
2022/12/04 12:00:10;;;;;;;8.60;8.40;;;5.70;99.90;;;;;;5067109;28;20266;-80
2022/12/04 12:03:06;;;;;;;8.70;8.50;;;5.70;99.90;;;;;;5063533;28;20285;-80
2022/12/04 12:06:04;;;;;;;9.00;8.70;;;5.70;99.90;;;;;;5038191;28;20243;-79
2022/12/04 12:08:52;;;;;;;8.70;8.50;;;5.80;99.90;;;;;;5036435;28;20231;-79
2022/12/04 12:11:27;;;;;;;8.97;8.67;;;5.90;99.90;;;;;;5061948;28;20329;-80
2022/12/04 12:14:07;;;;;;;8.90;8.60;;;5.80;99.90;;;;;;5060703;28;20284;-79
2022/12/04 12:16:49;;;;;;;8.80;8.60;;;5.90;99.90;;;;;;5061156;28;20245;-79
2022/12/04 12:19:42;;;;;;;8.60;8.40;;;6.00;99.90;;;;;;5052725;28;20222;-79
2022/12/04 12:22:24;;;;;;;9.00;8.70;;;6.00;99.90;;;;;;5057534;28;20233;-78
2022/12/04 12:25:04;;;;;;;8.90;8.60;;;6.00;99.90;;;;;;5063711;28;20241;-79
2022/12/04 12:27:50;;;;;;;8.80;8.60;;;6.10;99.90;;;;;;5061885;28;20282;-79
2022/12/04 12:30:21;;;;;;;9.00;8.70;;;6.10;99.90;;;;;;5063040;28;20226;-80
2022/12/04 12:33:12;;;;;;;9.10;8.80;;;6.10;99.90;;;;;;5064477;28;20277;-79
2022/12/04 12:35:45;;;;;;;8.70;8.50;;;6.10;99.90;;;;;;5063682;28;20319;-79
2022/12/04 12:38:19;;;;;;;8.97;8.67;;;6.10;99.90;;;;;;5063923;28;20243;-79
2022/12/04 12:40:55;;;;;;;8.70;8.50;;;6.10;99.90;;;;;;5064343;28;20227;-78
2022/12/04 12:43:28;;;;;;;9.10;8.80;;;6.10;99.90;;;;;;5063448;28;20329;-78
2022/12/04 12:46:01;;;;;;;9.10;8.80;;;6.10;99.90;;;;;;5064218;28;20326;-79
2022/12/04 12:48:36;;;;;;;9.00;8.70;;;6.10;99.90;;;;;;5063253;28;20227;-79
2022/12/04 12:51:09;;;;;;;9.10;8.80;;;6.10;99.90;;;;;;5061046;28;20218;-78
2022/12/04 12:53:43;;;;;;;9.20;8.90;;;6.10;99.90;;;;;;5064438;28;20249;-79
2022/12/04 12:56:13;;;;;;;9.20;8.90;;;6.30;99.90;;;;;;5065139;28;20227;-78
2022/12/04 12:58:46;;;;;;;9.13;8.83;;;6.30;99.90;;;;;;5064485;28;20253;-78
2022/12/04 13:01:19;;;;;;;9.00;8.70;;;6.30;99.90;;;;;;5064207;28;20219;-78
2022/12/04 13:03:57;;;;;;;8.97;8.67;;;6.30;99.90;;;;;;5064394;28;20239;-78
2022/12/04 13:06:31;;;;;;;8.97;8.67;;;6.30;99.90;;;;;;5057229;28;20262;-78
2022/12/04 13:09:06;;;;;;;8.97;8.67;;;6.40;99.90;;;;;;5045404;28;20266;-78
2022/12/04 13:11:36;;;;;;;8.70;8.50;;;6.50;99.90;;;;;;5045987;28;20242;-78
2022/12/04 13:14:05;;;;;;;8.97;8.67;;;6.60;99.90;;;;;;5048279;28;20232;-78
2022/12/04 13:16:38;;;;;;;9.00;8.70;;;6.70;99.90;;;;;;5046593;28;20231;-77
2022/12/04 13:19:13;;;;;;;9.07;8.77;;;6.70;99.90;;;;;;5043230;28;20231;-79
2022/12/04 13:21:46;;;;;;;9.23;8.93;;;6.50;99.90;;;;;;5042363;28;20258;-77
2022/12/04 13:24:56;;;;;;;9.30;9.00;;;6.40;99.90;;;;;;5042326;28;20235;-80
2022/12/04 13:27:41;;;;;;;9.10;8.80;;;6.30;99.90;;;;;;5042814;28;20294;-78
2022/12/04 13:30:18;;;;;;;8.73;8.53;;;6.30;99.90;;;;;;5043126;28;20321;-78
2022/12/04 13:33:39;;;;;;;9.10;8.80;;;6.40;99.90;;;;;;5051964;28;20243;-78
2022/12/04 13:36:23;;;;;;;8.77;8.57;;;6.50;99.90;;;;;;5021060;28;20251;-78
2022/12/04 13:39:17;;;;;;;9.10;8.80;;;6.40;99.90;;;;;;5045457;28;20237;-79
2022/12/04 13:41:45;;;;;;;8.80;8.60;;;6.40;99.90;;;;;;5048570;28;20216;-78
2022/12/04 13:44:21;;;;;;;8.70;8.50;;;6.40;99.90;;;;;;5047040;28;20243;-79
2022/12/04 13:46:56;;;;;;;9.00;8.70;;;6.40;99.90;;;;;;5067251;28;20326;-79
2022/12/04 13:49:27;;;;;;;8.73;8.53;;;6.40;99.90;;;;;;5043506;28;20269;-80
2022/12/04 13:51:57;;;;;;;8.70;8.50;;;6.50;99.90;;;;;;5043405;28;20233;-81
2022/12/04 13:54:31;;;;;;;8.70;8.50;;;6.50;99.90;;;;;;5042254;28;20235;-82
2022/12/04 13:57:18;;;;;;;8.80;8.60;;;6.60;99.90;;;;;;5043653;28;20258;-79
2022/12/04 13:59:48;;;;;;;8.70;8.50;;;6.60;99.90;;;;;;5042927;28;20232;-80
2022/12/04 14:02:28;;;;;;;8.80;8.60;;;6.60;99.90;;;;;;5041382;28;20224;-81
2022/12/04 14:05:02;;;;;;;8.60;8.40;;;6.60;99.90;;;;;;5054148;28;20234;-80